createdAt,value
2018-03-11T00:01:25.875Z,3.85
2018-03-11T00:03:54.033Z,2.47
2018-03-11T00:06:22.164Z,2.78
2018-03-11T00:08:50.398Z,3.45
2018-03-11T00:11:18.710Z,2.03
2018-03-11T00:13:46.816Z,2.33
2018-03-11T00:16:15.729Z,2.35
2018-03-11T00:18:44.724Z,2.70
2018-03-11T00:21:12.860Z,2.45
2018-03-11T00:23:41.733Z,2.42
2018-03-11T00:26:09.935Z,1.45
2018-03-11T00:28:38.928Z,2.03
2018-03-11T00:31:07.861Z,2.85
2018-03-11T00:33:36.013Z,2.10
2018-03-11T00:36:04.106Z,1.90
2018-03-11T00:38:32.215Z,3.30
2018-03-11T00:41:01.139Z,1.77
2018-03-11T00:43:30.131Z,2.30
2018-03-11T00:45:59.125Z,2.10
2018-03-11T00:48:27.294Z,2.17
2018-03-11T00:50:56.284Z,2.83
2018-03-11T00:53:25.174Z,2.50
2018-03-11T00:55:53.313Z,2.20
2018-03-11T00:58:22.204Z,2.10
2018-03-11T01:00:51.090Z,3.17
2018-03-11T01:03:19.983Z,2.23
2018-03-11T01:05:48.903Z,3.00
2018-03-11T01:08:17.052Z,2.37
2018-03-11T01:10:45.248Z,2.78
2018-03-11T01:13:13.524Z,2.62
2018-03-11T01:15:42.416Z,2.47
2018-03-11T01:18:10.529Z,2.00
2018-03-11T01:20:38.658Z,1.80
2018-03-11T01:23:06.826Z,2.85
2018-03-11T01:25:35.716Z,1.80
2018-03-11T01:28:04.706Z,2.17
2018-03-11T01:30:33.662Z,1.90
2018-03-11T01:33:02.554Z,1.50
2018-03-11T01:35:31.553Z,2.53
2018-03-11T01:38:00.427Z,2.10
2018-03-11T01:40:29.314Z,2.10
2018-03-11T01:42:58.338Z,1.80
2018-03-11T01:45:26.519Z,2.05
2018-03-11T01:47:55.481Z,1.80
2018-03-11T01:50:24.503Z,3.17
2018-03-11T01:53:11.426Z,2.05
2018-03-11T01:55:39.514Z,2.47
2018-03-11T01:58:07.658Z,1.80
2018-03-11T02:00:35.828Z,1.70
2018-03-11T02:03:04.680Z,1.73
2018-03-11T02:05:33.708Z,2.20
2018-03-11T02:08:02.672Z,4.65
2018-03-11T02:10:31.601Z,4.05
2018-03-11T02:12:59.763Z,2.53
2018-03-11T02:15:28.613Z,2.35
2018-03-11T02:17:57.513Z,3.10
2018-03-11T02:20:26.380Z,2.40
2018-03-11T02:22:54.654Z,1.85
2018-03-11T02:25:22.892Z,1.85
2018-03-11T02:27:51.049Z,1.52
2018-03-11T02:30:19.994Z,1.77
2018-03-11T02:32:48.184Z,2.00
2018-03-11T02:35:17.108Z,2.70
2018-03-11T02:37:45.275Z,2.42
2018-03-11T02:40:13.368Z,2.25
2018-03-11T02:42:41.596Z,2.40
2018-03-11T02:45:10.507Z,2.65
2018-03-11T02:47:39.380Z,1.90
2018-03-11T02:50:08.249Z,1.77
2018-03-11T02:52:37.125Z,2.72
2018-03-11T02:55:05.256Z,3.17
2018-03-11T02:57:33.364Z,1.83
2018-03-11T03:00:01.590Z,1.95
2018-03-11T03:02:30.478Z,2.00
2018-03-11T03:04:59.472Z,1.87
2018-03-11T03:07:27.642Z,2.20
2018-03-11T03:09:56.639Z,1.75
2018-03-11T03:12:24.736Z,1.73
2018-03-11T03:14:52.862Z,2.22
2018-03-11T03:17:20.994Z,1.67
2018-03-11T03:19:49.180Z,1.77
2018-03-11T03:22:18.055Z,1.52
2018-03-11T03:24:46.185Z,1.67
2018-03-11T03:27:14.351Z,1.98
2018-03-11T03:29:43.240Z,2.72
2018-03-11T03:32:12.129Z,2.40
2018-03-11T03:34:40.257Z,2.75
2018-03-11T03:37:08.478Z,2.33
2018-03-11T03:39:36.601Z,2.15
2018-03-11T03:42:05.637Z,2.17
2018-03-11T03:44:33.875Z,1.70
2018-03-11T03:47:02.802Z,1.48
2018-03-11T03:49:31.757Z,1.50
2018-03-11T03:52:00.841Z,1.80
2018-03-11T03:54:29.058Z,7.37
2018-03-11T03:56:57.905Z,1.67
2018-03-11T03:59:26.838Z,2.10
2018-03-11T04:01:55.010Z,1.80
2018-03-11T04:04:23.898Z,1.63
2018-03-11T04:06:52.009Z,2.45
2018-03-11T04:09:20.117Z,2.47
2018-03-11T04:11:49.004Z,3.10
2018-03-11T04:14:17.878Z,1.60
2018-03-11T04:16:46.911Z,1.62
2018-03-11T04:19:15.762Z,2.27
2018-03-11T04:21:44.752Z,1.33
2018-03-11T04:24:13.684Z,1.90
2018-03-11T04:26:41.778Z,1.73
2018-03-11T04:29:09.880Z,2.03
2018-03-11T04:31:38.772Z,1.73
2018-03-11T04:34:07.703Z,1.70
2018-03-11T04:36:35.805Z,1.75
2018-03-11T04:39:03.929Z,1.65
2018-03-11T04:41:32.120Z,2.22
2018-03-11T04:44:00.287Z,1.42
2018-03-11T04:46:28.458Z,1.73
2018-03-11T04:48:57.323Z,1.53
2018-03-11T04:51:26.217Z,1.58
2018-03-11T04:53:55.122Z,1.80
2018-03-11T04:56:23.229Z,2.20
2018-03-11T04:58:51.473Z,1.48
2018-03-11T05:01:20.427Z,1.60
2018-03-11T05:03:48.571Z,1.37
2018-03-11T05:06:16.707Z,1.83
2018-03-11T05:08:44.792Z,1.75
2018-03-11T05:11:13.008Z,1.90
2018-03-11T05:13:41.909Z,1.70
2018-03-11T05:16:10.880Z,1.50
2018-03-11T05:18:39.000Z,2.17
2018-03-11T05:21:07.172Z,1.40
2018-03-11T05:23:36.036Z,1.83
2018-03-11T05:26:04.144Z,1.45
2018-03-11T05:28:32.376Z,2.00
2018-03-11T05:31:00.480Z,1.98
2018-03-11T05:33:28.624Z,2.03
2018-03-11T05:35:57.641Z,1.55
2018-03-11T05:38:26.527Z,1.70
2018-03-11T05:40:55.519Z,2.58
2018-03-11T05:43:23.646Z,1.50
2018-03-11T05:45:51.763Z,2.17
2018-03-11T05:48:19.907Z,2.03
2018-03-11T05:50:48.822Z,1.58
2018-03-11T05:53:17.675Z,1.60
2018-03-11T05:55:46.601Z,2.00
2018-03-11T05:58:15.490Z,1.70
2018-03-11T06:00:43.601Z,1.67
2018-03-11T06:03:11.709Z,1.60
2018-03-11T06:05:39.905Z,1.50
2018-03-11T06:08:08.756Z,2.00
2018-03-11T06:10:37.725Z,3.03
2018-03-11T06:13:05.777Z,2.47
2018-03-11T06:15:33.889Z,2.65
2018-03-11T06:18:02.098Z,1.87
2018-03-11T06:20:30.238Z,1.50
2018-03-11T06:22:59.260Z,3.05
2018-03-11T06:25:28.111Z,1.92
2018-03-11T06:27:57.010Z,2.00
2018-03-11T06:30:25.945Z,2.00
2018-03-11T06:32:54.104Z,1.60
2018-03-11T06:35:22.273Z,1.90
2018-03-11T06:37:51.266Z,1.45
2018-03-11T06:40:19.440Z,1.75
2018-03-11T06:42:47.541Z,1.20
2018-03-11T06:45:15.715Z,1.52
2018-03-11T06:47:43.924Z,1.27
2018-03-11T06:50:12.943Z,3.25
2018-03-11T06:52:41.918Z,1.80
2018-03-11T06:55:10.111Z,2.35
2018-03-11T06:57:38.257Z,1.90
2018-03-11T07:00:07.343Z,1.40
2018-03-11T07:02:36.208Z,3.13
2018-03-11T07:05:05.213Z,1.08
2018-03-11T07:07:34.092Z,1.30
2018-03-11T07:10:02.285Z,1.25
2018-03-11T07:12:31.211Z,1.15
2018-03-11T07:14:59.377Z,1.45
2018-03-11T07:17:28.243Z,0.90
2018-03-11T07:19:56.438Z,2.67
2018-03-11T07:22:24.545Z,1.37
2018-03-11T07:24:52.783Z,2.95
2018-03-11T07:27:21.673Z,2.97
2018-03-11T07:29:50.572Z,1.20
2018-03-11T07:32:18.706Z,1.08
2018-03-11T07:34:47.628Z,1.80
2018-03-11T07:37:15.761Z,1.30
2018-03-11T07:39:44.767Z,1.20
2018-03-11T07:42:12.961Z,2.37
2018-03-11T07:44:41.053Z,1.27
2018-03-11T07:47:09.257Z,1.35
2018-03-11T07:49:38.175Z,1.02
2018-03-11T07:52:06.366Z,2.05
2018-03-11T07:54:35.409Z,1.00
2018-03-11T07:57:03.584Z,1.30
2018-03-11T07:59:31.776Z,1.17
2018-03-11T08:02:00.903Z,1.37
2018-03-11T08:04:29.069Z,1.40
2018-03-11T08:06:57.215Z,0.93
2018-03-11T08:09:26.129Z,1.08
2018-03-11T08:11:54.258Z,1.10
2018-03-11T08:14:22.485Z,1.50
2018-03-11T08:16:50.580Z,1.05
2018-03-11T08:19:18.843Z,2.27
2018-03-11T08:21:46.999Z,2.10
2018-03-11T08:24:15.171Z,2.55
2018-03-11T08:26:43.309Z,1.25
2018-03-11T08:29:12.187Z,0.93
2018-03-11T08:31:41.205Z,0.70
2018-03-11T08:34:09.389Z,1.10
2018-03-11T08:36:37.490Z,1.65
2018-03-11T08:39:05.637Z,1.77
2018-03-11T08:41:33.802Z,2.20
2018-03-11T08:44:02.822Z,3.20
2018-03-11T08:46:30.969Z,1.80
2018-03-11T08:48:59.139Z,1.10
2018-03-11T08:51:27.313Z,1.08
2018-03-11T08:53:55.441Z,3.97
2018-03-11T08:56:24.372Z,1.60
2018-03-11T08:58:52.497Z,2.70
2018-03-11T09:01:20.622Z,2.20
2018-03-11T09:03:48.861Z,1.50
2018-03-11T09:06:17.880Z,2.55
2018-03-11T09:08:46.039Z,3.62
2018-03-11T09:11:14.231Z,1.65
2018-03-11T09:13:42.342Z,3.28
2018-03-11T09:16:10.500Z,4.78
2018-03-11T09:18:38.742Z,1.77
2018-03-11T09:21:06.927Z,1.92
2018-03-11T09:23:35.094Z,3.83
2018-03-11T09:26:03.202Z,4.80
2018-03-11T09:28:31.351Z,5.60
2018-03-11T09:30:59.469Z,3.12
2018-03-11T09:33:28.494Z,2.50
2018-03-11T09:35:56.664Z,2.40
2018-03-11T09:38:24.837Z,4.13
2018-03-11T09:40:53.009Z,3.17
2018-03-11T09:43:21.150Z,2.73
2018-03-11T09:45:50.073Z,1.30
2018-03-11T09:48:18.243Z,4.77
2018-03-11T09:50:46.362Z,1.10
2018-03-11T09:53:14.595Z,1.47
2018-03-11T09:55:42.758Z,1.00
2018-03-11T09:58:11.613Z,1.60
2018-03-11T10:00:40.531Z,1.40
2018-03-11T10:03:08.681Z,3.13
2018-03-11T10:05:37.581Z,1.17
2018-03-11T10:08:06.497Z,3.37
2018-03-11T10:10:34.630Z,3.77
2018-03-11T10:13:02.865Z,2.40
2018-03-11T10:15:31.007Z,1.60
2018-03-11T10:17:59.117Z,1.63
2018-03-11T10:20:27.301Z,1.40
2018-03-11T10:22:55.443Z,2.00
2018-03-11T10:25:23.665Z,1.80
2018-03-11T10:27:52.557Z,1.53
2018-03-11T10:30:21.471Z,1.17
2018-03-11T10:32:49.626Z,1.60
2018-03-11T10:35:17.818Z,1.33
2018-03-11T10:37:45.985Z,1.20
2018-03-11T10:40:14.150Z,1.80
2018-03-11T10:42:42.330Z,3.13
2018-03-11T10:45:10.453Z,1.83
2018-03-11T10:47:38.679Z,1.50
2018-03-11T10:50:06.853Z,2.67
2018-03-11T10:52:34.961Z,5.10
2018-03-11T10:55:03.196Z,3.53
2018-03-11T10:57:32.086Z,3.90
2018-03-11T11:00:00.258Z,1.83
2018-03-11T11:02:28.451Z,7.50
2018-03-11T11:05:00.595Z,1.87
2018-03-11T11:07:28.871Z,4.00
2018-03-11T11:09:56.984Z,5.40
2018-03-11T11:12:25.220Z,1.90
2018-03-11T11:14:53.365Z,1.43
2018-03-11T11:17:21.558Z,1.33
2018-03-11T11:19:49.671Z,4.33
2018-03-11T11:22:17.812Z,1.50
2018-03-11T11:24:45.941Z,3.87
2018-03-11T11:27:14.962Z,1.00
2018-03-11T11:29:43.102Z,1.67
2018-03-11T11:32:12.013Z,1.40
2018-03-11T11:34:40.178Z,2.10
2018-03-11T11:37:09.213Z,1.90
2018-03-11T11:39:37.381Z,1.37
2018-03-11T11:42:05.542Z,4.70
2018-03-11T11:44:33.716Z,1.20
2018-03-11T11:47:01.890Z,1.77
2018-03-11T11:49:30.005Z,4.40
2018-03-11T11:51:58.314Z,1.77
2018-03-11T11:54:26.528Z,2.20
2018-03-11T11:56:55.093Z,2.53
2018-03-11T11:59:23.273Z,2.43
2018-03-11T12:01:51.396Z,4.20
2018-03-11T12:04:20.323Z,1.97
2018-03-11T12:06:48.487Z,1.90
2018-03-11T12:09:16.661Z,2.83
2018-03-11T12:11:44.812Z,2.13
2018-03-11T12:14:12.948Z,4.50
2018-03-11T12:16:41.156Z,1.77
2018-03-11T12:19:09.305Z,1.50
2018-03-11T12:21:38.237Z,2.13
2018-03-11T12:24:06.354Z,2.27
2018-03-11T12:26:34.581Z,2.33
2018-03-11T12:29:03.497Z,3.30
2018-03-11T12:31:31.629Z,1.97
2018-03-11T12:33:59.816Z,1.63
2018-03-11T12:36:28.704Z,2.87
2018-03-11T12:38:56.864Z,2.87
2018-03-11T12:41:25.803Z,1.47
2018-03-11T12:43:53.942Z,3.00
2018-03-11T12:46:22.094Z,1.70
2018-03-11T12:48:50.982Z,1.63
2018-03-11T12:51:19.894Z,1.73
2018-03-11T12:53:48.044Z,1.83
2018-03-11T12:56:16.190Z,3.20
2018-03-11T12:58:44.343Z,4.10
2018-03-11T13:01:12.498Z,3.10
2018-03-11T13:03:40.612Z,3.50
2018-03-11T13:06:09.541Z,5.17
2018-03-11T13:08:37.714Z,2.80
2018-03-11T13:11:05.884Z,3.60
2018-03-11T13:13:34.039Z,4.60
2018-03-11T13:16:02.977Z,2.27
2018-03-11T13:18:31.135Z,2.00
2018-03-11T13:21:09.990Z,2.40
2018-03-11T13:23:38.224Z,5.60
2018-03-11T13:26:06.316Z,5.80
2018-03-11T13:28:49.373Z,3.20
2018-03-11T13:31:17.580Z,2.57
2018-03-11T13:33:58.356Z,2.67
2018-03-11T13:36:26.519Z,2.83
2018-03-11T13:39:06.537Z,5.70
2018-03-11T13:41:35.460Z,2.97
2018-03-11T13:44:03.578Z,2.93
2018-03-11T13:46:43.501Z,4.77
2018-03-11T13:49:11.621Z,3.67
2018-03-11T13:51:52.418Z,5.23
2018-03-11T13:54:20.533Z,6.77
2018-03-11T13:56:48.686Z,3.30
2018-03-11T13:59:16.954Z,5.03
2018-03-11T14:01:45.071Z,7.23
2018-03-11T14:04:13.280Z,6.00
2018-03-11T14:06:42.273Z,6.00
2018-03-11T14:09:10.455Z,5.10
2018-03-11T14:11:38.578Z,6.23
2018-03-11T14:14:06.732Z,6.70
2018-03-11T14:16:34.987Z,4.27
2018-03-11T14:19:03.100Z,6.13
2018-03-11T14:21:32.026Z,5.03
2018-03-11T14:24:00.302Z,3.10
2018-03-11T14:26:28.469Z,2.50
2018-03-11T14:28:57.384Z,3.87
2018-03-11T14:31:25.540Z,2.77
2018-03-11T14:33:53.706Z,4.07
2018-03-11T14:36:21.840Z,3.90
2018-03-11T14:38:50.757Z,2.87
2018-03-11T14:41:18.953Z,4.50
2018-03-11T14:43:47.057Z,3.77
2018-03-11T14:46:15.284Z,4.93
2018-03-11T14:48:43.557Z,2.83
2018-03-11T14:51:17.865Z,3.17
2018-03-11T14:53:46.055Z,2.00
2018-03-11T14:56:14.159Z,3.83
2018-03-11T14:58:42.310Z,3.00
2018-03-11T15:01:10.563Z,2.70
2018-03-11T15:03:40.166Z,3.80
2018-03-11T15:06:08.446Z,3.17
2018-03-11T15:08:36.626Z,3.03
2018-03-11T15:11:04.784Z,5.23
2018-03-11T15:13:33.653Z,2.63
2018-03-11T15:16:01.878Z,3.20
2018-03-11T15:18:30.127Z,5.93
2018-03-11T15:20:58.241Z,3.90
2018-03-11T15:23:27.184Z,4.17
2018-03-11T15:25:55.361Z,6.10
2018-03-11T15:28:23.558Z,6.93
2018-03-11T15:30:51.684Z,3.67
2018-03-11T15:33:19.876Z,4.87
2018-03-11T15:35:48.361Z,4.87
2018-03-11T15:38:16.536Z,4.23
2018-03-11T15:40:44.655Z,3.27
2018-03-11T15:43:13.560Z,2.53
2018-03-11T15:45:42.514Z,5.20
2018-03-11T15:48:10.672Z,2.60
2018-03-11T15:50:38.825Z,8.07
2018-03-11T15:53:06.972Z,9.87
2018-03-11T15:55:35.903Z,14.87
2018-03-11T15:58:04.060Z,10.03
2018-03-11T16:00:32.335Z,13.40
2018-03-11T16:03:00.456Z,8.03
2018-03-11T16:05:28.642Z,8.80
2018-03-11T16:07:56.772Z,7.13
2018-03-11T16:10:24.939Z,6.70
2018-03-11T16:12:54.109Z,8.10
2018-03-11T16:15:22.251Z,7.43
2018-03-11T16:17:50.382Z,6.30
2018-03-11T16:20:18.562Z,6.13
2018-03-11T16:22:46.807Z,4.40
2018-03-11T16:25:15.796Z,8.30
2018-03-11T16:27:43.978Z,4.43
2018-03-11T16:30:12.142Z,4.83
2018-03-11T16:32:41.134Z,4.80
2018-03-11T16:35:09.308Z,4.17
2018-03-11T16:37:37.583Z,3.87
2018-03-11T16:40:05.764Z,6.90
2018-03-11T16:42:34.028Z,6.40
2018-03-11T16:45:02.202Z,5.23
2018-03-11T16:47:30.373Z,10.17
2018-03-11T16:49:58.513Z,8.30
2018-03-11T16:52:27.435Z,9.50
2018-03-11T16:54:55.616Z,7.80
2018-03-11T16:57:23.788Z,6.53
2018-03-11T16:59:51.935Z,6.10
2018-03-11T17:02:20.090Z,7.50
2018-03-11T17:04:48.983Z,6.50
2018-03-11T17:07:17.879Z,6.63
2018-03-11T17:09:46.034Z,7.72
2018-03-11T17:12:14.200Z,6.80
2018-03-11T17:14:43.143Z,7.07
2018-03-11T17:17:11.285Z,7.82
2018-03-11T17:19:39.454Z,8.52
2018-03-11T17:22:08.412Z,8.30
2018-03-11T17:24:36.688Z,8.13
2018-03-11T17:27:04.842Z,11.00
2018-03-11T17:29:32.993Z,11.70
2018-03-11T17:32:01.271Z,9.82
2018-03-11T17:34:29.438Z,8.90
2018-03-11T17:36:57.717Z,12.02
2018-03-11T17:39:25.914Z,14.13
2018-03-11T17:41:54.047Z,12.57
2018-03-11T17:44:22.229Z,13.25
2018-03-11T17:46:50.401Z,13.00
2018-03-11T17:49:18.591Z,20.50
2018-03-11T17:51:46.789Z,28.70
2018-03-11T17:54:15.033Z,23.17
2018-03-11T17:56:43.237Z,51.00
2018-03-11T17:59:11.468Z,38.25
2018-03-11T18:01:39.664Z,27.92
2018-03-11T18:04:07.923Z,17.35
2018-03-11T18:06:36.113Z,21.80
2018-03-11T18:09:04.277Z,14.95
2018-03-11T18:11:32.441Z,12.70
2018-03-11T18:14:00.576Z,9.35
2018-03-11T18:16:29.597Z,14.10
2018-03-11T18:18:57.766Z,17.40
2018-03-11T18:21:26.045Z,10.55
2018-03-11T18:23:54.196Z,11.25
2018-03-11T18:26:22.403Z,11.75
2018-03-11T18:28:50.969Z,10.95
2018-03-11T18:31:19.251Z,11.18
2018-03-11T18:33:47.525Z,11.23
2018-03-11T18:36:15.682Z,8.38
2018-03-11T18:38:44.651Z,9.68
2018-03-11T18:41:13.571Z,9.05
2018-03-11T18:43:41.861Z,8.80
2018-03-11T18:46:09.999Z,9.85
2018-03-11T18:48:39.523Z,7.80
2018-03-11T18:51:07.802Z,7.62
2018-03-11T18:53:35.949Z,9.48
2018-03-11T18:56:05.013Z,9.50
2018-03-11T18:58:33.202Z,8.50
2018-03-11T19:01:02.242Z,11.90
2018-03-11T19:03:30.397Z,12.20
2018-03-11T19:05:58.620Z,11.10
2018-03-11T19:08:26.845Z,13.70
2018-03-11T19:10:55.131Z,13.07
2018-03-11T19:13:23.398Z,11.57
2018-03-11T19:15:51.541Z,12.95
2018-03-11T19:18:20.469Z,13.53
2018-03-11T19:20:48.620Z,10.25
2018-03-11T19:23:16.875Z,13.73
2018-03-11T19:25:45.076Z,23.80
2018-03-11T19:28:13.232Z,11.10
2018-03-11T19:30:42.355Z,9.60
2018-03-11T19:33:10.581Z,10.43
2018-03-11T19:35:39.609Z,8.15
2018-03-11T19:38:07.885Z,9.50
2018-03-11T19:40:36.036Z,10.60
2018-03-11T19:43:04.337Z,12.75
2018-03-11T19:45:32.506Z,11.18
2018-03-11T19:48:01.501Z,10.17
2018-03-11T19:50:29.646Z,8.98
2018-03-11T19:52:58.553Z,10.70
2018-03-11T19:55:26.702Z,8.75
2018-03-11T19:57:55.832Z,9.07
2018-03-11T20:00:24.112Z,12.07
2018-03-11T20:02:52.266Z,10.90
2018-03-11T20:05:20.412Z,11.20
2018-03-11T20:07:49.833Z,14.30
2018-03-11T20:10:17.961Z,12.52
2018-03-11T20:12:46.392Z,14.35
2018-03-11T20:15:14.526Z,16.45
2018-03-11T20:17:43.723Z,14.80
2018-03-11T20:20:11.898Z,13.43
2018-03-11T20:22:40.210Z,19.50
2018-03-11T20:25:08.389Z,14.05
2018-03-11T20:27:36.559Z,12.18
2018-03-11T20:30:04.874Z,12.15
2018-03-11T20:32:33.282Z,12.20
2018-03-11T20:35:01.476Z,11.25
2018-03-11T20:37:29.852Z,10.30
2018-03-11T20:39:58.024Z,14.70
2018-03-11T20:42:26.285Z,10.30
2018-03-11T20:44:55.250Z,13.98
2018-03-11T20:47:23.471Z,15.50
2018-03-11T20:49:51.820Z,16.92
2018-03-11T20:52:20.765Z,15.63
2018-03-11T20:54:48.986Z,12.70
2018-03-11T20:57:17.277Z,13.68
2018-03-11T20:59:45.447Z,12.10
2018-03-11T21:02:13.636Z,12.63
2018-03-11T21:04:41.899Z,11.77
2018-03-11T21:07:10.095Z,12.75
2018-03-11T21:09:38.445Z,11.88
2018-03-11T21:12:06.619Z,12.68
2018-03-11T21:14:34.770Z,13.88
2018-03-11T21:17:03.795Z,13.50
2018-03-11T21:19:31.914Z,12.25
2018-03-11T21:22:00.848Z,14.10
2018-03-11T21:24:29.012Z,14.95
2018-03-11T21:26:57.193Z,12.80
2018-03-11T21:29:25.334Z,13.05
2018-03-11T21:31:54.594Z,11.23
2018-03-11T21:34:29.514Z,12.93
2018-03-11T21:36:57.658Z,12.50
2018-03-11T21:39:25.862Z,10.52
2018-03-11T21:41:54.000Z,11.60
2018-03-11T21:44:22.163Z,9.85
2018-03-11T21:46:51.063Z,11.15
2018-03-11T21:49:19.205Z,12.83
2018-03-11T21:51:48.194Z,8.85
2018-03-11T21:54:17.152Z,9.65
2018-03-11T21:56:45.395Z,10.35
2018-03-11T21:59:13.557Z,9.05
2018-03-11T22:01:42.652Z,12.05
2018-03-11T22:04:10.822Z,11.70
2018-03-11T22:06:38.947Z,10.05
2018-03-11T22:09:07.077Z,8.93
2018-03-11T22:11:35.211Z,8.35
2018-03-11T22:14:04.508Z,9.40
2018-03-11T22:16:33.426Z,9.90
2018-03-11T22:19:01.599Z,9.83
2018-03-11T22:21:30.108Z,10.48
2018-03-11T22:23:58.253Z,9.75
2018-03-11T22:26:26.397Z,11.32
2018-03-11T22:28:55.473Z,10.52
2018-03-11T22:31:23.688Z,10.80
2018-03-11T22:33:52.600Z,17.80
2018-03-11T22:36:20.728Z,11.50
2018-03-11T22:38:49.818Z,10.30
2018-03-11T22:41:18.703Z,10.68
2018-03-11T22:43:47.618Z,13.00
2018-03-11T22:46:15.777Z,10.73
2018-03-11T22:48:43.957Z,12.63
2018-03-11T22:51:12.147Z,11.75
2018-03-11T22:53:40.260Z,10.93
2018-03-11T22:56:09.160Z,11.73
2018-03-11T22:58:37.322Z,12.75
2018-03-11T23:01:05.472Z,11.45
2018-03-11T23:03:33.723Z,11.40
2018-03-11T23:06:01.828Z,11.52
2018-03-11T23:08:30.106Z,12.77
2018-03-11T23:10:58.232Z,12.23
2018-03-11T23:13:26.393Z,11.63
2018-03-11T23:15:54.568Z,12.35
2018-03-11T23:18:23.585Z,17.50
2018-03-11T23:20:51.706Z,34.42
2018-03-11T23:23:20.708Z,33.10
2018-03-11T23:25:49.727Z,25.60
2018-03-11T23:28:17.863Z,21.15
2018-03-11T23:30:46.754Z,12.73
2018-03-11T23:33:15.776Z,21.33
2018-03-11T23:35:43.895Z,14.45
2018-03-11T23:38:12.050Z,11.60
2018-03-11T23:40:40.192Z,11.45
2018-03-11T23:43:08.409Z,13.40
2018-03-11T23:45:36.737Z,10.98
2018-03-11T23:48:04.878Z,13.40
2018-03-11T23:50:33.800Z,21.62
2018-03-11T23:53:01.914Z,15.90
2018-03-11T23:55:31.538Z,13.48
2018-03-11T23:58:00.438Z,11.90
